sensor_id;sensor_type;location;lat;lon;timestamp;temperature;humidity
12769;DHT22;6448;48.916;8.990;2023-12-07T00:00:37;9.30;56.80
12769;DHT22;6448;48.916;8.990;2023-12-07T00:01:39;9.30;56.80
12769;DHT22;6448;48.916;8.990;2023-12-07T00:02:40;9.30;56.80
12769;DHT22;6448;48.916;8.990;2023-12-07T00:03:41;9.40;56.80
12769;DHT22;6448;48.916;8.990;2023-12-07T00:04:42;9.40;56.70
12769;DHT22;6448;48.916;8.990;2023-12-07T00:05:43;9.40;56.70
12769;DHT22;6448;48.916;8.990;2023-12-07T00:06:44;9.40;56.70
12769;DHT22;6448;48.916;8.990;2023-12-07T00:07:46;9.40;56.70
12769;DHT22;6448;48.916;8.990;2023-12-07T00:08:47;9.40;56.70
12769;DHT22;6448;48.916;8.990;2023-12-07T00:09:48;9.40;56.70
12769;DHT22;6448;48.916;8.990;2023-12-07T00:10:49;9.40;56.60
12769;DHT22;6448;48.916;8.990;2023-12-07T00:11:51;9.40;56.60
12769;DHT22;6448;48.916;8.990;2023-12-07T00:12:51;9.40;56.70
12769;DHT22;6448;48.916;8.990;2023-12-07T00:13:53;9.40;56.60
12769;DHT22;6448;48.916;8.990;2023-12-07T00:14:54;9.40;56.50
12769;DHT22;6448;48.916;8.990;2023-12-07T00:15:56;9.40;56.60
12769;DHT22;6448;48.916;8.990;2023-12-07T00:16:58;9.50;56.70
12769;DHT22;6448;48.916;8.990;2023-12-07T00:17:59;9.40;56.50
12769;DHT22;6448;48.916;8.990;2023-12-07T00:19:01;9.50;56.60
12769;DHT22;6448;48.916;8.990;2023-12-07T00:20:01;9.50;56.40
12769;DHT22;6448;48.916;8.990;2023-12-07T00:21:04;9.50;56.20
12769;DHT22;6448;48.916;8.990;2023-12-07T00:22:05;9.50;56.60
12769;DHT22;6448;48.916;8.990;2023-12-07T00:23:07;9.50;56.00
12769;DHT22;6448;48.916;8.990;2023-12-07T00:24:08;9.50;55.90
12769;DHT22;6448;48.916;8.990;2023-12-07T00:25:10;9.50;55.90
12769;DHT22;6448;48.916;8.990;2023-12-07T00:26:10;9.50;55.90
12769;DHT22;6448;48.916;8.990;2023-12-07T00:27:11;9.50;56.00
12769;DHT22;6448;48.916;8.990;2023-12-07T00:28:13;9.50;56.00
12769;DHT22;6448;48.916;8.990;2023-12-07T00:29:14;9.50;56.00
12769;DHT22;6448;48.916;8.990;2023-12-07T00:30:16;9.50;56.00
12769;DHT22;6448;48.916;8.990;2023-12-07T00:31:18;9.50;56.00
12769;DHT22;6448;48.916;8.990;2023-12-07T00:32:20;9.50;56.00
12769;DHT22;6448;48.916;8.990;2023-12-07T00:33:21;9.40;55.90
12769;DHT22;6448;48.916;8.990;2023-12-07T00:34:23;9.50;56.00
12769;DHT22;6448;48.916;8.990;2023-12-07T00:35:24;9.50;56.00
12769;DHT22;6448;48.916;8.990;2023-12-07T00:36:29;9.40;55.90
12769;DHT22;6448;48.916;8.990;2023-12-07T00:37:30;9.40;55.90
12769;DHT22;6448;48.916;8.990;2023-12-07T00:38:31;9.40;56.00
12769;DHT22;6448;48.916;8.990;2023-12-07T00:39:32;9.70;56.20
12769;DHT22;6448;48.916;8.990;2023-12-07T00:40:34;9.40;56.00
12769;DHT22;6448;48.916;8.990;2023-12-07T00:41:37;9.40;56.00
12769;DHT22;6448;48.916;8.990;2023-12-07T00:42:39;9.40;56.00
12769;DHT22;6448;48.916;8.990;2023-12-07T00:43:40;9.40;56.10
12769;DHT22;6448;48.916;8.990;2023-12-07T00:44:42;9.70;56.30
12769;DHT22;6448;48.916;8.990;2023-12-07T00:45:43;9.40;56.20
12769;DHT22;6448;48.916;8.990;2023-12-07T00:46:46;9.40;56.20
12769;DHT22;6448;48.916;8.990;2023-12-07T00:47:46;9.40;56.30
12769;DHT22;6448;48.916;8.990;2023-12-07T00:48:48;9.40;56.30
12769;DHT22;6448;48.916;8.990;2023-12-07T00:49:49;9.40;56.90
12769;DHT22;6448;48.916;8.990;2023-12-07T00:50:50;9.40;56.30
12769;DHT22;6448;48.916;8.990;2023-12-07T00:51:52;9.40;56.30
12769;DHT22;6448;48.916;8.990;2023-12-07T00:52:53;9.40;56.40
12769;DHT22;6448;48.916;8.990;2023-12-07T00:53:55;9.40;56.40
12769;DHT22;6448;48.916;8.990;2023-12-07T00:54:57;9.40;56.40
12769;DHT22;6448;48.916;8.990;2023-12-07T00:55:57;9.40;56.40
12769;DHT22;6448;48.916;8.990;2023-12-07T00:56:59;9.30;56.30
12769;DHT22;6448;48.916;8.990;2023-12-07T00:58:00;9.30;56.30
12769;DHT22;6448;48.916;8.990;2023-12-07T00:59:02;9.30;56.30
12769;DHT22;6448;48.916;8.990;2023-12-07T01:00:04;9.30;56.60
12769;DHT22;6448;48.916;8.990;2023-12-07T01:01:06;9.30;56.30
12769;DHT22;6448;48.916;8.990;2023-12-07T01:02:10;9.30;56.40
12769;DHT22;6448;48.916;8.990;2023-12-07T01:03:10;9.30;56.30
12769;DHT22;6448;48.916;8.990;2023-12-07T01:04:12;9.30;56.40
12769;DHT22;6448;48.916;8.990;2023-12-07T01:05:13;9.30;56.40
12769;DHT22;6448;48.916;8.990;2023-12-07T01:06:14;9.30;56.40
12769;DHT22;6448;48.916;8.990;2023-12-07T01:07:17;9.30;56.50
12769;DHT22;6448;48.916;8.990;2023-12-07T01:08:17;9.30;56.40
12769;DHT22;6448;48.916;8.990;2023-12-07T01:09:19;9.30;56.50
12769;DHT22;6448;48.916;8.990;2023-12-07T01:10:20;9.30;56.50
12769;DHT22;6448;48.916;8.990;2023-12-07T01:11:22;9.30;56.60
12769;DHT22;6448;48.916;8.990;2023-12-07T01:12:23;9.30;56.60
12769;DHT22;6448;48.916;8.990;2023-12-07T01:13:23;9.30;56.70
12769;DHT22;6448;48.916;8.990;2023-12-07T01:14:25;9.30;56.70
12769;DHT22;6448;48.916;8.990;2023-12-07T01:15:26;9.30;56.70
12769;DHT22;6448;48.916;8.990;2023-12-07T01:16:27;9.30;56.70
12769;DHT22;6448;48.916;8.990;2023-12-07T01:17:30;9.30;56.70
12769;DHT22;6448;48.916;8.990;2023-12-07T01:18:31;9.30;56.70
12769;DHT22;6448;48.916;8.990;2023-12-07T01:19:33;9.30;56.70
12769;DHT22;6448;48.916;8.990;2023-12-07T01:20:34;9.20;56.70
12769;DHT22;6448;48.916;8.990;2023-12-07T01:21:36;9.30;56.70
12769;DHT22;6448;48.916;8.990;2023-12-07T01:22:37;9.30;56.70
12769;DHT22;6448;48.916;8.990;2023-12-07T01:23:39;9.30;56.80
12769;DHT22;6448;48.916;8.990;2023-12-07T01:24:39;9.30;56.80
12769;DHT22;6448;48.916;8.990;2023-12-07T01:25:40;9.30;56.80
12769;DHT22;6448;48.916;8.990;2023-12-07T01:26:42;9.30;56.80
12769;DHT22;6448;48.916;8.990;2023-12-07T01:27:43;9.20;56.70
12769;DHT22;6448;48.916;8.990;2023-12-07T01:28:45;9.20;56.80
12769;DHT22;6448;48.916;8.990;2023-12-07T01:29:46;9.30;56.80
12769;DHT22;6448;48.916;8.990;2023-12-07T01:30:47;9.30;56.80
12769;DHT22;6448;48.916;8.990;2023-12-07T01:31:48;9.20;56.70
12769;DHT22;6448;48.916;8.990;2023-12-07T01:32:50;9.20;56.80
12769;DHT22;6448;48.916;8.990;2023-12-07T01:33:52;9.30;56.80
12769;DHT22;6448;48.916;8.990;2023-12-07T01:34:53;9.30;56.80
12769;DHT22;6448;48.916;8.990;2023-12-07T01:35:53;9.30;56.70
12769;DHT22;6448;48.916;8.990;2023-12-07T01:36:55;9.20;56.70
12769;DHT22;6448;48.916;8.990;2023-12-07T01:37:56;9.20;56.70
12769;DHT22;6448;48.916;8.990;2023-12-07T01:38:58;9.20;56.70
12769;DHT22;6448;48.916;8.990;2023-12-07T01:39:59;9.20;56.80
12769;DHT22;6448;48.916;8.990;2023-12-07T01:41:00;9.30;56.90
12769;DHT22;6448;48.916;8.990;2023-12-07T01:42:01;9.20;56.90
12769;DHT22;6448;48.916;8.990;2023-12-07T01:43:03;9.20;56.90
12769;DHT22;6448;48.916;8.990;2023-12-07T01:44:04;9.20;57.20
12769;DHT22;6448;48.916;8.990;2023-12-07T01:45:06;9.10;56.80
12769;DHT22;6448;48.916;8.990;2023-12-07T01:46:07;9.10;56.90
12769;DHT22;6448;48.916;8.990;2023-12-07T01:47:08;9.10;56.90
12769;DHT22;6448;48.916;8.990;2023-12-07T01:48:12;9.10;57.00
12769;DHT22;6448;48.916;8.990;2023-12-07T01:49:13;9.10;57.00
12769;DHT22;6448;48.916;8.990;2023-12-07T01:50:15;9.10;57.10
12769;DHT22;6448;48.916;8.990;2023-12-07T01:51:17;9.00;57.10
12769;DHT22;6448;48.916;8.990;2023-12-07T01:52:20;9.00;57.10
12769;DHT22;6448;48.916;8.990;2023-12-07T01:53:23;9.00;57.20
12769;DHT22;6448;48.916;8.990;2023-12-07T01:54:25;9.00;57.20
12769;DHT22;6448;48.916;8.990;2023-12-07T01:55:27;9.00;57.30
12769;DHT22;6448;48.916;8.990;2023-12-07T01:56:30;9.00;57.30
12769;DHT22;6448;48.916;8.990;2023-12-07T01:57:32;9.00;57.30
12769;DHT22;6448;48.916;8.990;2023-12-07T01:58:33;8.90;57.20
12769;DHT22;6448;48.916;8.990;2023-12-07T01:59:35;9.00;57.90
12769;DHT22;6448;48.916;8.990;2023-12-07T02:00:36;8.90;57.30
12769;DHT22;6448;48.916;8.990;2023-12-07T02:01:38;8.90;57.20
12769;DHT22;6448;48.916;8.990;2023-12-07T02:02:39;8.90;57.30
12769;DHT22;6448;48.916;8.990;2023-12-07T02:03:42;8.90;57.30
12769;DHT22;6448;48.916;8.990;2023-12-07T02:04:43;8.90;57.30
12769;DHT22;6448;48.916;8.990;2023-12-07T02:05:47;8.90;57.30
12769;DHT22;6448;48.916;8.990;2023-12-07T02:06:49;8.90;57.40
12769;DHT22;6448;48.916;8.990;2023-12-07T02:07:51;8.90;57.40
12769;DHT22;6448;48.916;8.990;2023-12-07T02:08:52;8.90;57.30
12769;DHT22;6448;48.916;8.990;2023-12-07T02:09:54;8.90;57.40
12769;DHT22;6448;48.916;8.990;2023-12-07T02:10:55;8.80;57.30
12769;DHT22;6448;48.916;8.990;2023-12-07T02:11:56;8.80;57.40
12769;DHT22;6448;48.916;8.990;2023-12-07T02:12:58;8.80;57.30
12769;DHT22;6448;48.916;8.990;2023-12-07T02:14:00;8.80;57.30
12769;DHT22;6448;48.916;8.990;2023-12-07T02:15:02;8.80;57.30
12769;DHT22;6448;48.916;8.990;2023-12-07T02:16:09;8.80;57.30
12769;DHT22;6448;48.916;8.990;2023-12-07T02:17:18;8.80;57.20
12769;DHT22;6448;48.916;8.990;2023-12-07T02:18:25;8.80;57.20
12769;DHT22;6448;48.916;8.990;2023-12-07T02:19:49;8.80;57.20
12769;DHT22;6448;48.916;8.990;2023-12-07T02:21:15;8.80;57.20
12769;DHT22;6448;48.916;8.990;2023-12-07T02:22:25;8.80;57.20
12769;DHT22;6448;48.916;8.990;2023-12-07T02:23:29;8.80;57.20
12769;DHT22;6448;48.916;8.990;2023-12-07T02:24:33;8.80;57.20
12769;DHT22;6448;48.916;8.990;2023-12-07T02:25:36;8.70;57.30
12769;DHT22;6448;48.916;8.990;2023-12-07T02:26:40;8.70;57.60
12769;DHT22;6448;48.916;8.990;2023-12-07T02:27:43;8.60;57.80
12769;DHT22;6448;48.916;8.990;2023-12-07T02:28:46;8.60;57.90
12769;DHT22;6448;48.916;8.990;2023-12-07T02:29:47;8.60;58.00
12769;DHT22;6448;48.916;8.990;2023-12-07T02:30:48;8.60;58.00
12769;DHT22;6448;48.916;8.990;2023-12-07T02:31:49;8.60;58.00
12769;DHT22;6448;48.916;8.990;2023-12-07T02:32:51;8.70;57.90
12769;DHT22;6448;48.916;8.990;2023-12-07T02:33:52;8.70;57.90
12769;DHT22;6448;48.916;8.990;2023-12-07T02:34:54;8.70;57.80
12769;DHT22;6448;48.916;8.990;2023-12-07T02:35:55;8.70;57.80
12769;DHT22;6448;48.916;8.990;2023-12-07T02:36:58;8.70;57.80
12769;DHT22;6448;48.916;8.990;2023-12-07T02:38:00;8.70;57.80
12769;DHT22;6448;48.916;8.990;2023-12-07T02:39:03;8.80;57.80
12769;DHT22;6448;48.916;8.990;2023-12-07T02:40:06;8.80;57.80
12769;DHT22;6448;48.916;8.990;2023-12-07T02:41:11;8.80;57.80
12769;DHT22;6448;48.916;8.990;2023-12-07T02:42:14;8.80;57.80
12769;DHT22;6448;48.916;8.990;2023-12-07T02:43:17;8.80;57.70
12769;DHT22;6448;48.916;8.990;2023-12-07T02:44:18;8.80;57.60
12769;DHT22;6448;48.916;8.990;2023-12-07T02:45:20;8.80;57.50
12769;DHT22;6448;48.916;8.990;2023-12-07T02:46:21;8.80;57.40
12769;DHT22;6448;48.916;8.990;2023-12-07T02:47:23;8.80;57.40
12769;DHT22;6448;48.916;8.990;2023-12-07T02:48:24;8.90;57.40
12769;DHT22;6448;48.916;8.990;2023-12-07T02:49:25;8.90;57.30
12769;DHT22;6448;48.916;8.990;2023-12-07T02:50:26;8.90;57.30
12769;DHT22;6448;48.916;8.990;2023-12-07T02:51:27;8.90;57.30
12769;DHT22;6448;48.916;8.990;2023-12-07T02:52:29;8.90;57.20
12769;DHT22;6448;48.916;8.990;2023-12-07T02:53:30;8.90;57.20
12769;DHT22;6448;48.916;8.990;2023-12-07T02:54:32;8.90;57.20
12769;DHT22;6448;48.916;8.990;2023-12-07T02:55:32;8.90;57.10
12769;DHT22;6448;48.916;8.990;2023-12-07T02:56:34;8.90;57.10
12769;DHT22;6448;48.916;8.990;2023-12-07T02:57:36;8.90;57.10
12769;DHT22;6448;48.916;8.990;2023-12-07T02:58:37;8.80;57.00
12769;DHT22;6448;48.916;8.990;2023-12-07T02:59:39;8.90;57.00
12769;DHT22;6448;48.916;8.990;2023-12-07T03:00:40;8.90;57.00
12769;DHT22;6448;48.916;8.990;2023-12-07T03:01:42;8.90;57.00
12769;DHT22;6448;48.916;8.990;2023-12-07T03:02:43;8.90;57.00
12769;DHT22;6448;48.916;8.990;2023-12-07T03:03:44;8.90;57.00
12769;DHT22;6448;48.916;8.990;2023-12-07T03:04:45;8.90;56.90
12769;DHT22;6448;48.916;8.990;2023-12-07T03:05:47;8.90;56.90
12769;DHT22;6448;48.916;8.990;2023-12-07T03:06:47;8.80;56.90
12769;DHT22;6448;48.916;8.990;2023-12-07T03:07:49;8.90;56.90
12769;DHT22;6448;48.916;8.990;2023-12-07T03:08:50;8.90;56.90
12769;DHT22;6448;48.916;8.990;2023-12-07T03:09:52;8.80;56.80
12769;DHT22;6448;48.916;8.990;2023-12-07T03:10:52;8.80;56.80
12769;DHT22;6448;48.916;8.990;2023-12-07T03:11:53;8.80;56.80
12769;DHT22;6448;48.916;8.990;2023-12-07T03:12:56;8.80;56.90
12769;DHT22;6448;48.916;8.990;2023-12-07T03:13:57;8.80;56.90
12769;DHT22;6448;48.916;8.990;2023-12-07T03:14:59;8.80;56.80
12769;DHT22;6448;48.916;8.990;2023-12-07T03:16:00;8.80;56.90
12769;DHT22;6448;48.916;8.990;2023-12-07T03:17:01;8.70;56.90
12769;DHT22;6448;48.916;8.990;2023-12-07T03:18:02;8.80;56.90
12769;DHT22;6448;48.916;8.990;2023-12-07T03:19:04;8.80;56.90
12769;DHT22;6448;48.916;8.990;2023-12-07T03:20:06;8.80;56.90
12769;DHT22;6448;48.916;8.990;2023-12-07T03:21:08;8.80;56.90
12769;DHT22;6448;48.916;8.990;2023-12-07T03:22:09;8.80;57.50
12769;DHT22;6448;48.916;8.990;2023-12-07T03:23:11;8.80;56.70
12769;DHT22;6448;48.916;8.990;2023-12-07T03:24:11;8.90;56.40
12769;DHT22;6448;48.916;8.990;2023-12-07T03:25:13;8.90;56.20
12769;DHT22;6448;48.916;8.990;2023-12-07T03:26:14;8.90;56.20
12769;DHT22;6448;48.916;8.990;2023-12-07T03:27:16;8.90;56.10
12769;DHT22;6448;48.916;8.990;2023-12-07T03:28:18;8.80;56.00
12769;DHT22;6448;48.916;8.990;2023-12-07T03:29:20;8.80;56.00
12769;DHT22;6448;48.916;8.990;2023-12-07T03:30:20;8.80;56.00
12769;DHT22;6448;48.916;8.990;2023-12-07T03:31:22;8.80;55.90
12769;DHT22;6448;48.916;8.990;2023-12-07T03:32:23;8.80;55.90
12769;DHT22;6448;48.916;8.990;2023-12-07T03:33:25;8.80;55.90
12769;DHT22;6448;48.916;8.990;2023-12-07T03:34:25;8.80;56.00
12769;DHT22;6448;48.916;8.990;2023-12-07T03:35:27;8.70;56.00
12769;DHT22;6448;48.916;8.990;2023-12-07T03:36:28;8.70;56.00
12769;DHT22;6448;48.916;8.990;2023-12-07T03:37:30;8.70;56.00
12769;DHT22;6448;48.916;8.990;2023-12-07T03:38:31;8.70;56.00
12769;DHT22;6448;48.916;8.990;2023-12-07T03:39:33;8.70;56.20
12769;DHT22;6448;48.916;8.990;2023-12-07T03:40:34;8.60;56.50
12769;DHT22;6448;48.916;8.990;2023-12-07T03:41:35;8.50;56.70
12769;DHT22;6448;48.916;8.990;2023-12-07T03:42:36;8.50;56.70
12769;DHT22;6448;48.916;8.990;2023-12-07T03:43:38;8.50;56.80
12769;DHT22;6448;48.916;8.990;2023-12-07T03:44:40;8.50;56.80
12769;DHT22;6448;48.916;8.990;2023-12-07T03:45:41;8.50;56.80
12769;DHT22;6448;48.916;8.990;2023-12-07T03:46:43;8.50;56.80
12769;DHT22;6448;48.916;8.990;2023-12-07T03:47:43;8.60;56.90
12769;DHT22;6448;48.916;8.990;2023-12-07T03:48:45;8.60;56.90
12769;DHT22;6448;48.916;8.990;2023-12-07T03:49:46;8.60;56.90
12769;DHT22;6448;48.916;8.990;2023-12-07T03:50:47;8.60;56.90
12769;DHT22;6448;48.916;8.990;2023-12-07T03:51:48;8.60;56.80
12769;DHT22;6448;48.916;8.990;2023-12-07T03:52:49;8.60;56.80
12769;DHT22;6448;48.916;8.990;2023-12-07T03:53:51;8.70;56.90
12769;DHT22;6448;48.916;8.990;2023-12-07T03:54:52;8.60;56.80
12769;DHT22;6448;48.916;8.990;2023-12-07T03:55:53;8.60;56.90
12769;DHT22;6448;48.916;8.990;2023-12-07T03:56:54;8.50;56.70
12769;DHT22;6448;48.916;8.990;2023-12-07T03:57:55;8.60;56.80
12769;DHT22;6448;48.916;8.990;2023-12-07T03:58:57;8.60;56.80
12769;DHT22;6448;48.916;8.990;2023-12-07T03:59:59;8.60;56.80
12769;DHT22;6448;48.916;8.990;2023-12-07T04:01:00;8.60;56.70
12769;DHT22;6448;48.916;8.990;2023-12-07T04:02:02;8.60;56.70
12769;DHT22;6448;48.916;8.990;2023-12-07T04:03:03;8.60;56.70
12769;DHT22;6448;48.916;8.990;2023-12-07T04:04:04;8.60;56.70
12769;DHT22;6448;48.916;8.990;2023-12-07T04:05:06;8.60;56.70
12769;DHT22;6448;48.916;8.990;2023-12-07T04:06:08;8.60;56.70
12769;DHT22;6448;48.916;8.990;2023-12-07T04:07:09;8.60;56.70
12769;DHT22;6448;48.916;8.990;2023-12-07T04:08:11;8.50;56.70
12769;DHT22;6448;48.916;8.990;2023-12-07T04:09:13;8.80;56.80
12769;DHT22;6448;48.916;8.990;2023-12-07T04:10:14;8.50;56.70
12769;DHT22;6448;48.916;8.990;2023-12-07T04:11:16;8.60;56.70
12769;DHT22;6448;48.916;8.990;2023-12-07T04:12:18;8.50;56.60
12769;DHT22;6448;48.916;8.990;2023-12-07T04:13:20;8.50;56.50
12769;DHT22;6448;48.916;8.990;2023-12-07T04:14:23;8.50;56.50
12769;DHT22;6448;48.916;8.990;2023-12-07T04:15:24;8.60;56.50
12769;DHT22;6448;48.916;8.990;2023-12-07T04:16:24;8.60;56.50
12769;DHT22;6448;48.916;8.990;2023-12-07T04:17:27;8.60;56.50
12769;DHT22;6448;48.916;8.990;2023-12-07T04:18:27;8.50;56.30
12769;DHT22;6448;48.916;8.990;2023-12-07T04:19:29;8.50;56.30
12769;DHT22;6448;48.916;8.990;2023-12-07T04:20:30;8.50;56.30
12769;DHT22;6448;48.916;8.990;2023-12-07T04:21:32;8.50;56.30
12769;DHT22;6448;48.916;8.990;2023-12-07T04:22:32;8.50;56.40
12769;DHT22;6448;48.916;8.990;2023-12-07T04:23:34;8.50;56.40
12769;DHT22;6448;48.916;8.990;2023-12-07T04:24:35;8.50;56.40
12769;DHT22;6448;48.916;8.990;2023-12-07T04:25:37;8.50;56.40
12769;DHT22;6448;48.916;8.990;2023-12-07T04:26:37;8.50;56.40
12769;DHT22;6448;48.916;8.990;2023-12-07T04:27:39;8.50;56.40
12769;DHT22;6448;48.916;8.990;2023-12-07T04:28:40;8.50;56.40
12769;DHT22;6448;48.916;8.990;2023-12-07T04:29:43;8.50;56.40
12769;DHT22;6448;48.916;8.990;2023-12-07T04:30:44;8.50;56.30
12769;DHT22;6448;48.916;8.990;2023-12-07T04:31:46;8.40;56.30
12769;DHT22;6448;48.916;8.990;2023-12-07T04:32:47;8.40;56.30
12769;DHT22;6448;48.916;8.990;2023-12-07T04:33:48;8.40;56.30
12769;DHT22;6448;48.916;8.990;2023-12-07T04:34:49;8.40;56.30
12769;DHT22;6448;48.916;8.990;2023-12-07T04:35:51;8.40;56.40
12769;DHT22;6448;48.916;8.990;2023-12-07T04:36:52;8.40;56.40
12769;DHT22;6448;48.916;8.990;2023-12-07T04:37:53;8.40;56.40
12769;DHT22;6448;48.916;8.990;2023-12-07T04:38:54;8.40;56.40
12769;DHT22;6448;48.916;8.990;2023-12-07T04:39:56;8.40;56.40
12769;DHT22;6448;48.916;8.990;2023-12-07T04:40:56;8.30;56.40
12769;DHT22;6448;48.916;8.990;2023-12-07T04:41:58;8.40;56.40
12769;DHT22;6448;48.916;8.990;2023-12-07T04:42:59;8.40;56.50
12769;DHT22;6448;48.916;8.990;2023-12-07T04:44:00;8.30;56.40
12769;DHT22;6448;48.916;8.990;2023-12-07T04:45:04;8.30;56.40
12769;DHT22;6448;48.916;8.990;2023-12-07T04:46:05;8.30;56.40
12769;DHT22;6448;48.916;8.990;2023-12-07T04:47:07;8.30;56.40
12769;DHT22;6448;48.916;8.990;2023-12-07T04:48:07;8.30;56.40
12769;DHT22;6448;48.916;8.990;2023-12-07T04:49:09;8.30;56.40
12769;DHT22;6448;48.916;8.990;2023-12-07T04:50:10;8.30;56.40
12769;DHT22;6448;48.916;8.990;2023-12-07T04:51:12;8.30;56.40
12769;DHT22;6448;48.916;8.990;2023-12-07T04:52:12;8.30;56.40
12769;DHT22;6448;48.916;8.990;2023-12-07T04:53:14;8.30;56.40
12769;DHT22;6448;48.916;8.990;2023-12-07T04:54:15;8.30;56.40
12769;DHT22;6448;48.916;8.990;2023-12-07T04:55:17;8.30;56.30
12769;DHT22;6448;48.916;8.990;2023-12-07T04:56:17;8.30;56.30
12769;DHT22;6448;48.916;8.990;2023-12-07T04:57:19;8.30;56.40
12769;DHT22;6448;48.916;8.990;2023-12-07T04:58:20;8.30;56.30
12769;DHT22;6448;48.916;8.990;2023-12-07T04:59:22;8.30;56.40
12769;DHT22;6448;48.916;8.990;2023-12-07T05:00:24;8.30;56.40
12769;DHT22;6448;48.916;8.990;2023-12-07T05:01:25;8.30;56.40
12769;DHT22;6448;48.916;8.990;2023-12-07T05:02:27;8.30;56.40
12769;DHT22;6448;48.916;8.990;2023-12-07T05:03:28;8.20;56.40
12769;DHT22;6448;48.916;8.990;2023-12-07T05:04:30;8.20;56.40
12769;DHT22;6448;48.916;8.990;2023-12-07T05:05:30;8.30;56.80
12769;DHT22;6448;48.916;8.990;2023-12-07T05:06:32;8.30;56.10
12769;DHT22;6448;48.916;8.990;2023-12-07T05:07:33;8.30;56.00
12769;DHT22;6448;48.916;8.990;2023-12-07T05:08:35;8.30;55.90
12769;DHT22;6448;48.916;8.990;2023-12-07T05:09:36;8.40;55.90
12769;DHT22;6448;48.916;8.990;2023-12-07T05:10:38;8.30;55.90
12769;DHT22;6448;48.916;8.990;2023-12-07T05:11:39;8.30;55.90
12769;DHT22;6448;48.916;8.990;2023-12-07T05:12:41;8.30;55.90
12769;DHT22;6448;48.916;8.990;2023-12-07T05:13:42;8.20;56.00
12769;DHT22;6448;48.916;8.990;2023-12-07T05:14:44;8.20;56.00
12769;DHT22;6448;48.916;8.990;2023-12-07T05:15:46;8.20;56.10
12769;DHT22;6448;48.916;8.990;2023-12-07T05:16:48;8.20;56.10
12769;DHT22;6448;48.916;8.990;2023-12-07T05:17:48;8.20;56.10
12769;DHT22;6448;48.916;8.990;2023-12-07T05:18:50;8.20;56.00
12769;DHT22;6448;48.916;8.990;2023-12-07T05:19:51;8.20;56.00
12769;DHT22;6448;48.916;8.990;2023-12-07T05:20:53;8.20;56.00
12769;DHT22;6448;48.916;8.990;2023-12-07T05:21:53;8.20;56.00
12769;DHT22;6448;48.916;8.990;2023-12-07T05:22:55;8.20;56.00
12769;DHT22;6448;48.916;8.990;2023-12-07T05:23:56;8.20;56.00
12769;DHT22;6448;48.916;8.990;2023-12-07T05:24:58;8.20;56.00
12769;DHT22;6448;48.916;8.990;2023-12-07T05:25:58;8.20;56.00
12769;DHT22;6448;48.916;8.990;2023-12-07T05:27:00;8.20;56.00
12769;DHT22;6448;48.916;8.990;2023-12-07T05:28:01;8.10;56.00
12769;DHT22;6448;48.916;8.990;2023-12-07T05:29:03;8.10;55.90
12769;DHT22;6448;48.916;8.990;2023-12-07T05:30:05;8.10;55.90
12769;DHT22;6448;48.916;8.990;2023-12-07T05:31:14;8.10;56.00
12769;DHT22;6448;48.916;8.990;2023-12-07T05:32:15;8.10;56.00
12769;DHT22;6448;48.916;8.990;2023-12-07T05:33:18;8.10;56.00
12769;DHT22;6448;48.916;8.990;2023-12-07T05:34:19;8.10;56.00
12769;DHT22;6448;48.916;8.990;2023-12-07T05:35:21;8.10;56.00
12769;DHT22;6448;48.916;8.990;2023-12-07T05:36:23;8.10;56.00
12769;DHT22;6448;48.916;8.990;2023-12-07T05:37:26;8.10;56.10
12769;DHT22;6448;48.916;8.990;2023-12-07T05:38:27;8.00;56.00
12769;DHT22;6448;48.916;8.990;2023-12-07T05:39:29;8.00;56.00
12769;DHT22;6448;48.916;8.990;2023-12-07T05:40:30;8.00;56.10
12769;DHT22;6448;48.916;8.990;2023-12-07T05:41:32;8.00;56.10
12769;DHT22;6448;48.916;8.990;2023-12-07T05:42:32;8.00;56.10
12769;DHT22;6448;48.916;8.990;2023-12-07T05:43:33;8.00;56.30
12769;DHT22;6448;48.916;8.990;2023-12-07T05:44:35;7.90;56.30
12769;DHT22;6448;48.916;8.990;2023-12-07T05:45:36;7.90;56.50
12769;DHT22;6448;48.916;8.990;2023-12-07T05:46:38;7.90;56.50
12769;DHT22;6448;48.916;8.990;2023-12-07T05:47:44;7.90;56.60
12769;DHT22;6448;48.916;8.990;2023-12-07T05:48:45;7.90;56.50
12769;DHT22;6448;48.916;8.990;2023-12-07T05:49:47;7.90;56.50
12769;DHT22;6448;48.916;8.990;2023-12-07T05:50:48;7.90;56.60
12769;DHT22;6448;48.916;8.990;2023-12-07T05:51:50;7.90;56.60
12769;DHT22;6448;48.916;8.990;2023-12-07T05:52:50;7.90;56.60
12769;DHT22;6448;48.916;8.990;2023-12-07T05:53:52;7.90;56.50
12769;DHT22;6448;48.916;8.990;2023-12-07T05:54:53;7.90;56.50
12769;DHT22;6448;48.916;8.990;2023-12-07T05:55:55;7.90;56.50
12769;DHT22;6448;48.916;8.990;2023-12-07T05:56:56;7.90;56.50
12769;DHT22;6448;48.916;8.990;2023-12-07T05:57:56;7.90;56.50
12769;DHT22;6448;48.916;8.990;2023-12-07T05:58:58;7.90;56.40
12769;DHT22;6448;48.916;8.990;2023-12-07T05:59:59;7.90;56.40
12769;DHT22;6448;48.916;8.990;2023-12-07T06:01:02;7.90;56.40
12769;DHT22;6448;48.916;8.990;2023-12-07T06:02:04;7.90;56.40
12769;DHT22;6448;48.916;8.990;2023-12-07T06:03:06;8.00;56.40
12769;DHT22;6448;48.916;8.990;2023-12-07T06:04:08;7.90;56.40
12769;DHT22;6448;48.916;8.990;2023-12-07T06:05:10;7.90;56.40
12769;DHT22;6448;48.916;8.990;2023-12-07T06:06:11;7.90;56.40
12769;DHT22;6448;48.916;8.990;2023-12-07T06:07:12;7.90;56.40
12769;DHT22;6448;48.916;8.990;2023-12-07T06:08:14;7.90;56.40
12769;DHT22;6448;48.916;8.990;2023-12-07T06:09:15;7.90;56.40
12769;DHT22;6448;48.916;8.990;2023-12-07T06:10:16;7.90;56.50
12769;DHT22;6448;48.916;8.990;2023-12-07T06:11:17;7.90;56.40
12769;DHT22;6448;48.916;8.990;2023-12-07T06:12:19;7.80;56.40
12769;DHT22;6448;48.916;8.990;2023-12-07T06:13:22;7.90;56.50
12769;DHT22;6448;48.916;8.990;2023-12-07T06:14:24;7.80;56.40
12769;DHT22;6448;48.916;8.990;2023-12-07T06:15:25;7.80;56.50
12769;DHT22;6448;48.916;8.990;2023-12-07T06:16:27;7.80;56.60
12769;DHT22;6448;48.916;8.990;2023-12-07T06:17:29;7.80;56.60
12769;DHT22;6448;48.916;8.990;2023-12-07T06:18:31;7.60;56.50
12769;DHT22;6448;48.916;8.990;2023-12-07T06:19:32;7.80;56.50
12769;DHT22;6448;48.916;8.990;2023-12-07T06:20:34;7.80;56.50
12769;DHT22;6448;48.916;8.990;2023-12-07T06:21:35;7.80;56.50
12769;DHT22;6448;48.916;8.990;2023-12-07T06:22:37;7.80;56.50
12769;DHT22;6448;48.916;8.990;2023-12-07T06:23:37;7.80;56.50
12769;DHT22;6448;48.916;8.990;2023-12-07T06:24:38;7.80;56.50
12769;DHT22;6448;48.916;8.990;2023-12-07T06:25:40;7.80;56.40
12769;DHT22;6448;48.916;8.990;2023-12-07T06:26:41;7.80;56.40
12769;DHT22;6448;48.916;8.990;2023-12-07T06:27:42;7.90;56.50
12769;DHT22;6448;48.916;8.990;2023-12-07T06:28:44;7.80;56.40
12769;DHT22;6448;48.916;8.990;2023-12-07T06:29:46;7.80;56.40
12769;DHT22;6448;48.916;8.990;2023-12-07T06:30:47;7.80;56.40
12769;DHT22;6448;48.916;8.990;2023-12-07T06:31:48;7.80;56.40
12769;DHT22;6448;48.916;8.990;2023-12-07T06:32:50;7.80;56.40
12769;DHT22;6448;48.916;8.990;2023-12-07T06:33:52;7.80;56.40
12769;DHT22;6448;48.916;8.990;2023-12-07T06:34:54;7.80;56.40
12769;DHT22;6448;48.916;8.990;2023-12-07T06:35:55;7.80;56.30
12769;DHT22;6448;48.916;8.990;2023-12-07T06:36:56;7.80;56.30
12769;DHT22;6448;48.916;8.990;2023-12-07T06:37:58;7.80;56.30
12769;DHT22;6448;48.916;8.990;2023-12-07T06:38:59;7.70;56.30
12769;DHT22;6448;48.916;8.990;2023-12-07T06:39:59;7.70;56.30
12769;DHT22;6448;48.916;8.990;2023-12-07T06:41:01;7.70;56.40
12769;DHT22;6448;48.916;8.990;2023-12-07T06:42:02;7.70;56.40
12769;DHT22;6448;48.916;8.990;2023-12-07T06:43:03;7.70;57.00